Time;durP1;ratioP1;P1;durP2;ratioP2;P2;SDS_P1;SDS_P2;PMS_P1;PMS_P2;Temp;Humidity;BMP_temperature;BMP_pressure;BME280_temperature;BME280_humidity;BME280_pressure;Samples;Min_cycle;Max_cycle;Signal;HPM_P1;HPM_P2
2021/08/25 00:02:22;;;;;;;2.50;2.30;;;;;;;27.55;38.13;101019.47;144992;573;6004;-85
2021/08/25 00:04:49;;;;;;;2.65;2.17;;;;;;;27.53;37.79;101013.34;144992;589;6004;-84
2021/08/25 00:07:15;;;;;;;3.05;1.95;;;;;;;27.53;37.72;101011.53;144992;565;6004;-85
2021/08/25 00:09:42;;;;;;;2.40;2.15;;;;;;;27.52;37.39;101017.78;144992;582;6004;-86
2021/08/25 00:12:10;;;;;;;2.90;2.15;;;;;;;27.51;37.66;101016.94;144992;613;6004;-84
2021/08/25 00:14:39;;;;;;;2.72;2.15;;;;;;;27.47;37.53;101017.09;144992;567;6004;-85
2021/08/25 00:17:06;;;;;;;2.60;2.17;;;;;;;27.46;37.52;101023.37;144992;689;6004;-85
2021/08/25 00:19:33;;;;;;;2.83;2.53;;;;;;;27.45;37.62;101027.81;144992;589;6004;-85
2021/08/25 00:21:59;;;;;;;2.53;2.10;;;;;;;27.45;37.58;101018.94;144992;597;6004;-84
2021/08/25 00:24:26;;;;;;;3.45;2.25;;;;;;;27.41;37.58;101012.87;144992;567;6004;-84
2021/08/25 00:26:53;;;;;;;3.12;1.85;;;;;;;27.38;37.82;101020.97;144992;603;6004;-83
2021/08/25 00:29:19;;;;;;;4.25;2.08;;;;;;;27.38;37.51;101020.09;144992;592;6004;-83
2021/08/25 00:31:46;;;;;;;3.92;2.15;;;;;;;27.37;37.96;101011.22;144991;569;6000;-83
2021/08/25 00:34:13;;;;;;;2.42;2.12;;;;;;;27.38;37.72;101004.09;144992;593;6002;-84
2021/08/25 00:36:39;;;;;;;3.87;2.10;;;;;;;27.41;37.70;101012.87;144992;592;6002;-83
2021/08/25 00:39:06;;;;;;;2.83;2.08;;;;;;;27.42;37.59;101011.91;144992;667;6002;-83
2021/08/25 00:41:33;;;;;;;3.10;2.15;;;;;;;27.44;37.47;101010.09;144992;590;6002;-83
2021/08/25 00:43:59;;;;;;;2.67;2.00;;;;;;;27.44;37.18;101007.44;144992;666;6002;-84
2021/08/25 00:46:31;;;;;;;2.50;2.08;;;;;;;27.44;37.16;101007.44;144992;570;6002;-85
2021/08/25 00:49:00;;;;;;;4.12;2.17;;;;;;;27.43;37.14;101005.69;144992;704;6002;-84
2021/08/25 00:51:26;;;;;;;2.33;2.12;;;;;;;27.42;37.15;101003.94;144992;581;6002;-84
2021/08/25 00:53:53;;;;;;;7.90;2.53;;;;;;;27.42;37.10;101001.25;144992;563;6002;-83
2021/08/25 00:56:22;;;;;;;3.15;2.00;;;;;;;27.41;37.16;101003.97;144992;565;6002;-85
2021/08/25 00:58:51;;;;;;;2.67;2.28;;;;;;;27.39;37.29;100998.69;144992;704;6002;-85
2021/08/25 01:02:14;;;;;;;4.50;2.58;;;;;;;27.37;37.45;100994.38;144992;680;6002;-85
2021/08/25 01:04:53;;;;;;;2.58;2.37;;;;;;;27.35;37.53;100986.44;144992;588;6002;-82
2021/08/25 01:07:23;;;;;;;3.15;2.20;;;;;;;27.29;37.63;100984.81;144992;570;6002;-84
2021/08/25 01:09:53;;;;;;;4.80;2.30;;;;;;;27.24;37.68;100992.09;144992;601;6002;-85
2021/08/25 01:12:24;;;;;;;2.87;2.03;;;;;;;27.23;37.53;100994.81;144992;581;6002;-84
2021/08/25 01:14:50;;;;;;;3.22;2.37;;;;;;;27.20;37.70;100987.78;144992;765;6002;-84
2021/08/25 01:17:21;;;;;;;2.72;2.37;;;;;;;27.22;37.68;100987.75;144992;577;6002;-83
2021/08/25 01:20:12;;;;;;;6.18;2.50;;;;;;;27.20;37.44;100984.28;144992;599;6002;-85
2021/08/25 01:22:41;;;;;;;5.03;2.50;;;;;;;27.17;36.86;100979.94;144992;565;6002;-84
2021/08/25 01:25:11;;;;;;;3.80;2.47;;;;;;;27.17;37.34;100979.06;144992;725;6003;-84
2021/08/25 01:27:52;;;;;;;3.00;2.20;;;;;;;27.14;37.31;100977.38;144992;574;6002;-84
2021/08/25 01:30:20;;;;;;;3.37;2.15;;;;;;;27.15;37.49;100981.75;144992;601;6002;-85
2021/08/25 01:32:47;;;;;;;2.90;2.35;;;;;;;27.14;36.71;100972.91;144992;670;6003;-84
2021/08/25 01:35:14;;;;;;;2.30;2.10;;;;;;;27.14;37.06;100977.38;144992;598;6002;-85
2021/08/25 01:37:41;;;;;;;3.42;2.30;;;;;;;27.14;36.90;100978.25;144992;564;6002;-85
2021/08/25 01:40:09;;;;;;;4.05;2.47;;;;;;;27.10;36.74;100975.75;144992;590;6002;-84
2021/08/25 01:42:35;;;;;;;5.25;2.35;;;;;;;27.05;37.08;100983.88;144992;564;6002;-83
2021/08/25 01:45:02;;;;;;;4.07;2.28;;;;;;;27.03;36.94;100980.41;144992;581;6002;-84
2021/08/25 01:47:28;;;;;;;3.05;1.87;;;;;;;26.97;36.89;100978.81;144992;607;6002;-84
2021/08/25 01:49:55;;;;;;;2.78;2.17;;;;;;;26.97;36.62;100983.28;144992;594;6002;-85
2021/08/25 01:52:22;;;;;;;2.40;2.20;;;;;;;26.99;36.58;100986.75;144992;563;6010;-84
2021/08/25 01:54:52;;;;;;;4.65;3.15;;;;;;;27.00;36.38;100987.66;144991;569;6010;-85
2021/08/25 01:57:20;;;;;;;3.17;2.08;;;;;;;27.02;36.23;100983.13;144992;589;6002;-83
2021/08/25 01:59:47;;;;;;;4.32;2.20;;;;;;;27.01;36.40;100984.91;144992;564;6002;-83
2021/08/25 02:02:14;;;;;;;4.25;2.00;;;;;;;27.01;36.05;100992.91;144992;585;6002;-84
2021/08/25 02:04:40;;;;;;;2.42;2.10;;;;;;;27.02;36.09;100984.00;144992;596;6002;-84
2021/08/25 02:07:07;;;;;;;2.90;1.87;;;;;;;27.02;35.75;100991.97;144992;914;6002;-84
2021/08/25 02:09:33;;;;;;;4.12;2.12;;;;;;;27.02;35.91;100988.47;144992;569;6002;-84
2021/08/25 02:11:59;;;;;;;3.78;2.12;;;;;;;27.00;35.50;100987.66;144992;571;6002;-83
2021/08/25 02:14:26;;;;;;;4.35;2.30;;;;;;;27.00;35.79;100988.50;144992;574;6002;-85
2021/08/25 02:16:52;;;;;;;2.72;2.22;;;;;;;26.99;36.01;100989.41;144992;688;6002;-84
2021/08/25 02:19:19;;;;;;;3.85;2.15;;;;;;;26.99;35.39;100989.41;144992;587;6002;-84
2021/08/25 02:21:45;;;;;;;3.67;2.10;;;;;;;26.97;35.53;100981.47;144992;579;6002;-84
2021/08/25 02:24:12;;;;;;;3.05;2.10;;;;;;;26.96;35.15;100990.41;144992;587;6002;-85
2021/08/25 02:26:38;;;;;;;3.25;1.87;;;;;;;26.95;35.04;100990.47;144992;564;6002;-84
2021/08/25 02:29:05;;;;;;;2.87;2.20;;;;;;;26.93;35.08;100987.84;144992;579;6002;-84
2021/08/25 02:31:32;;;;;;;3.28;2.22;;;;;;;26.92;34.94;100988.78;144992;699;6002;-84
2021/08/25 02:33:58;;;;;;;2.42;2.08;;;;;;;26.92;35.24;100990.56;144992;677;6002;-83
2021/08/25 02:36:24;;;;;;;2.60;1.90;;;;;;;26.92;34.78;100991.44;144991;588;6002;-84
2021/08/25 02:38:51;;;;;;;2.33;2.00;;;;;;;26.93;34.75;100987.84;144992;564;6002;-84
2021/08/25 02:41:19;;;;;;;3.05;2.35;;;;;;;26.93;34.78;100989.63;144992;577;6002;-85
2021/08/25 02:43:46;;;;;;;4.00;2.28;;;;;;;26.92;34.65;100988.78;144993;561;6002;-84
2021/08/25 02:46:13;;;;;;;2.65;2.25;;;;;;;26.91;34.70;100989.69;144993;593;6002;-85
2021/08/25 02:48:39;;;;;;;2.40;1.95;;;;;;;26.92;34.77;100987.91;144993;564;6002;-85
2021/08/25 02:51:06;;;;;;;3.30;2.15;;;;;;;26.90;34.64;100989.72;144993;652;6002;-84
2021/08/25 02:53:32;;;;;;;3.55;2.15;;;;;;;26.89;35.00;100982.69;144993;586;6002;-85
2021/08/25 02:55:59;;;;;;;3.17;2.12;;;;;;;26.88;34.72;100989.78;144993;583;6002;-83
2021/08/25 02:58:25;;;;;;;4.75;2.67;;;;;;;26.88;34.67;100983.59;144993;673;6002;-83
2021/08/25 03:00:52;;;;;;;3.45;2.03;;;;;;;26.87;34.58;100980.06;144993;580;6002;-84
2021/08/25 03:03:18;;;;;;;3.65;2.25;;;;;;;26.85;34.45;100981.91;144993;587;6002;-84
2021/08/25 03:05:45;;;;;;;4.05;2.12;;;;;;;26.86;34.43;100985.44;144993;589;6002;-84
2021/08/25 03:08:11;;;;;;;3.92;2.28;;;;;;;26.85;34.52;100987.22;144992;565;6002;-85
2021/08/25 03:10:37;;;;;;;4.20;1.87;;;;;;;26.84;34.47;100988.16;144993;600;6002;-85
2021/08/25 03:13:04;;;;;;;5.50;2.28;;;;;;;26.84;34.16;100985.50;144992;703;6002;-84
2021/08/25 03:15:31;;;;;;;4.40;2.12;;;;;;;26.84;34.42;100982.84;144992;569;6002;-84
2021/08/25 03:17:57;;;;;;;2.83;2.12;;;;;;;26.84;34.67;100984.66;144992;569;6002;-85
2021/08/25 03:20:23;;;;;;;3.35;2.22;;;;;;;26.84;34.53;100989.97;144992;565;6002;-86
2021/08/25 03:22:50;;;;;;;4.28;2.40;;;;;;;26.81;34.38;100990.94;144992;597;6002;-87
2021/08/25 03:25:16;;;;;;;4.78;2.60;;;;;;;26.77;34.42;100984.84;144992;627;6002;-85
2021/08/25 03:27:43;;;;;;;4.15;2.47;;;;;;;26.75;34.50;100991.12;144993;596;6002;-83
2021/08/25 03:30:10;;;;;;;3.85;2.37;;;;;;;26.73;34.51;101001.84;144993;576;6002;-83
2021/08/25 03:32:37;;;;;;;3.75;2.22;;;;;;;26.72;34.21;101000.09;144993;595;6002;-82
2021/08/25 03:35:04;;;;;;;2.92;2.08;;;;;;;26.69;34.26;101013.50;144993;592;6002;-84
2021/08/25 03:37:30;;;;;;;4.12;2.20;;;;;;;26.67;33.93;101007.34;144993;762;6002;-85
2021/08/25 03:39:57;;;;;;;2.55;2.10;;;;;;;26.64;34.07;101004.75;144993;739;6002;-85
2021/08/25 03:42:23;;;;;;;5.50;2.50;;;;;;;26.65;34.23;101008.34;144993;570;6002;-83
2021/08/25 03:44:50;;;;;;;3.70;2.40;;;;;;;26.63;34.13;101013.69;144993;897;6002;-84
2021/08/25 03:47:16;;;;;;;3.83;2.45;;;;;;;26.62;33.99;101015.47;144993;594;6002;-84
2021/08/25 03:49:43;;;;;;;2.70;2.30;;;;;;;26.62;34.04;101019.94;144993;591;6002;-85
2021/08/25 03:52:09;;;;;;;4.25;2.53;;;;;;;26.60;34.35;101021.78;144993;563;6002;-83
2021/08/25 03:54:35;;;;;;;3.42;2.35;;;;;;;26.60;34.05;101016.44;144992;914;6002;-84
2021/08/25 03:57:02;;;;;;;4.70;2.33;;;;;;;26.57;34.13;101021.88;144992;585;6002;-84
2021/08/25 03:59:29;;;;;;;8.23;2.53;;;;;;;26.55;34.18;101016.59;144993;566;6002;-85
2021/08/25 04:01:55;;;;;;;5.22;2.60;;;;;;;26.55;34.30;101018.38;144993;563;6002;-83
2021/08/25 04:04:22;;;;;;;7.22;2.55;;;;;;;26.55;34.32;101023.69;144993;915;6002;-82
2021/08/25 04:06:48;;;;;;;5.53;2.55;;;;;;;26.55;34.08;101029.00;144993;570;6002;-85
2021/08/25 04:09:14;;;;;;;3.30;2.28;;;;;;;26.55;34.26;101027.25;144993;719;6003;-84
2021/08/25 04:11:41;;;;;;;5.75;2.30;;;;;;;26.55;34.06;101031.66;144993;915;6002;-83
2021/08/25 04:14:07;;;;;;;12.30;2.90;;;;;;;26.56;34.12;101025.44;144993;914;6002;-84
2021/08/25 04:16:34;;;;;;;4.70;2.40;;;;;;;26.55;34.22;101021.91;144993;857;6003;-83
2021/08/25 04:19:00;;;;;;;2.80;2.10;;;;;;;26.57;34.33;101024.53;144993;699;6002;-85
2021/08/25 04:21:27;;;;;;;4.12;2.60;;;;;;;26.59;34.02;101044.84;144994;573;5002;-84
2021/08/25 04:23:53;;;;;;;4.72;2.50;;;;;;;26.60;34.45;101043.06;144994;915;5002;-83
2021/08/25 04:26:20;;;;;;;7.85;2.80;;;;;;;26.59;34.43;101042.19;144994;915;5002;-85
2021/08/25 04:28:47;;;;;;;4.05;2.33;;;;;;;26.60;34.34;101033.28;144994;879;5002;-85
2021/08/25 04:31:13;;;;;;;4.12;2.60;;;;;;;26.60;34.45;101045.72;144994;716;5002;-84
2021/08/25 04:33:40;;;;;;;7.12;2.40;;;;;;;26.63;34.36;101045.62;144994;566;5002;-84
2021/08/25 04:36:06;;;;;;;6.55;2.80;;;;;;;26.65;34.54;101048.28;144994;914;5002;-84
2021/08/25 04:38:33;;;;;;;3.92;2.40;;;;;;;26.66;34.47;101053.56;144994;569;5002;-83
2021/08/25 04:40:59;;;;;;;7.32;2.83;;;;;;;26.68;34.53;101038.41;144994;846;5002;-83
2021/08/25 04:43:26;;;;;;;5.55;2.45;;;;;;;26.70;34.60;101036.53;144994;914;5002;-83
2021/08/25 04:45:53;;;;;;;6.32;2.55;;;;;;;26.72;34.86;101034.69;144994;571;5002;-84
2021/08/25 04:48:19;;;;;;;6.10;2.40;;;;;;;26.73;34.58;101036.44;144994;570;5002;-84
2021/08/25 04:50:46;;;;;;;7.47;2.50;;;;;;;26.76;34.59;101035.50;144994;914;5002;-83
2021/08/25 04:53:12;;;;;;;7.07;2.97;;;;;;;26.78;34.40;101034.50;144994;914;5002;-83
2021/08/25 04:55:39;;;;;;;4.68;2.70;;;;;;;26.82;34.59;101034.41;144994;593;5002;-85
2021/08/25 04:58:06;;;;;;;4.75;2.42;;;;;;;26.83;34.29;101031.69;144994;914;5002;-84
2021/08/25 05:00:33;;;;;;;4.30;2.30;;;;;;;26.87;34.59;101036.00;144994;637;5002;-84
2021/08/25 05:03:00;;;;;;;6.68;2.35;;;;;;;26.90;34.32;101027.03;144993;827;5002;-83
2021/08/25 05:05:27;;;;;;;6.15;2.60;;;;;;;26.93;34.53;101035.81;144994;569;5002;-85
2021/08/25 05:07:53;;;;;;;4.75;2.47;;;;;;;26.95;34.62;101033.94;144994;578;5002;-84
2021/08/25 05:10:20;;;;;;;6.78;2.20;;;;;;;27.00;34.37;101027.59;144994;822;5002;-84
2021/08/25 05:12:46;;;;;;;3.30;2.50;;;;;;;27.04;34.62;101031.88;144994;569;5002;-83
2021/08/25 05:15:13;;;;;;;3.65;2.60;;;;;;;27.07;34.59;101029.97;144993;599;5002;-84
2021/08/25 05:17:40;;;;;;;7.35;2.85;;;;;;;27.11;34.86;101031.62;144994;589;5002;-84
2021/08/25 05:20:08;;;;;;;7.40;3.08;;;;;;;27.14;34.74;101028.88;144994;914;5002;-84
2021/08/25 05:22:35;;;;;;;6.20;3.12;;;;;;;27.19;34.70;101033.16;144994;661;5002;-84
2021/08/25 05:25:02;;;;;;;7.47;3.05;;;;;;;27.23;34.94;101034.78;144994;600;5002;-85
2021/08/25 05:27:29;;;;;;;6.32;3.72;;;;;;;27.26;34.84;101034.69;144994;579;5002;-85
2021/08/25 05:29:55;;;;;;;9.32;3.87;;;;;;;27.30;34.76;101031.00;144994;646;5002;-83
2021/08/25 05:32:24;;;;;;;6.05;4.00;;;;;;;27.31;34.75;101032.75;144994;571;5002;-84
2021/08/25 05:34:51;;;;;;;6.95;4.12;;;;;;;27.33;34.91;101039.78;144994;914;5002;-85
2021/08/25 05:37:18;;;;;;;9.98;3.80;;;;;;;27.37;35.16;101042.34;144994;573;5002;-85
2021/08/25 05:39:44;;;;;;;8.90;5.62;;;;;;;27.39;35.25;101038.69;144994;741;5002;-84
2021/08/25 05:42:11;;;;;;;6.43;4.47;;;;;;;27.43;35.09;101042.12;144994;884;5002;-84
2021/08/25 05:44:37;;;;;;;9.02;4.93;;;;;;;27.47;35.24;101038.41;144994;619;5002;-86
2021/08/25 05:47:04;;;;;;;7.25;5.20;;;;;;;27.50;35.57;101041.88;144994;663;5002;-84
2021/08/25 05:49:30;;;;;;;8.15;5.55;;;;;;;27.58;35.57;101038.03;144994;914;5002;-85
2021/08/25 05:51:57;;;;;;;9.10;5.03;;;;;;;27.63;35.40;101044.06;144994;606;5002;-84
2021/08/25 05:54:23;;;;;;;8.55;4.70;;;;;;;27.69;35.60;101034.03;144994;571;5002;-84
2021/08/25 05:56:50;;;;;;;7.65;5.07;;;;;;;27.73;35.81;101037.50;144994;581;5002;-85
2021/08/25 05:59:16;;;;;;;8.30;4.35;;;;;;;27.77;35.73;101039.09;144994;583;5002;-86
2021/08/25 06:01:42;;;;;;;8.73;4.45;;;;;;;27.84;35.74;101035.28;144994;573;5002;-84
2021/08/25 06:04:09;;;;;;;6.62;3.55;;;;;;;27.90;35.68;101035.97;144994;569;5002;-85
2021/08/25 06:06:35;;;;;;;7.03;3.72;;;;;;;27.98;35.73;101039.25;144994;591;5002;-84
2021/08/25 06:09:04;;;;;;;8.00;3.67;;;;;;;28.06;35.58;101031.81;144994;564;5002;-84
2021/08/25 06:11:31;;;;;;;5.30;3.70;;;;;;;28.14;35.56;101024.41;144994;623;5002;-85
2021/08/25 06:13:57;;;;;;;5.85;4.12;;;;;;;28.18;35.46;101022.50;144994;607;5002;-84
2021/08/25 06:16:24;;;;;;;8.32;3.70;;;;;;;28.19;35.49;101014.41;144994;631;5002;-85
2021/08/25 06:18:51;;;;;;;11.15;4.55;;;;;;;28.20;35.53;101013.47;144994;571;5002;-83
2021/08/25 06:21:18;;;;;;;7.18;3.87;;;;;;;28.18;35.57;101014.47;144994;609;5002;-83
2021/08/25 06:23:45;;;;;;;13.35;3.75;;;;;;;28.21;35.61;101012.56;144994;689;5002;-84
2021/08/25 06:26:11;;;;;;;8.00;3.75;;;;;;;28.13;36.11;101014.66;144994;685;5002;-84
2021/08/25 06:28:38;;;;;;;6.22;3.60;;;;;;;28.17;36.18;101023.41;144994;597;5002;-84
2021/08/25 06:31:05;;;;;;;6.57;3.33;;;;;;;28.16;36.51;101022.53;144994;592;5002;-84
2021/08/25 06:33:31;;;;;;;5.72;3.05;;;;;;;28.22;37.06;101022.31;144994;569;5002;-82
2021/08/25 06:35:58;;;;;;;3.03;2.50;;;;;;;28.22;37.53;101024.97;144994;564;5002;-88
2021/08/25 06:38:24;;;;;;;5.15;2.90;;;;;;;28.19;38.26;101025.09;144994;595;5002;-84
2021/08/25 06:41:04;;;;;;;6.37;3.00;;;;;;;28.12;38.20;101023.59;144993;575;5002;-82
2021/08/25 06:44:01;;;;;;;5.00;2.97;;;;;;;28.11;38.85;101031.66;144994;642;5002;-83
2021/08/25 06:46:34;;;;;;;3.67;2.65;;;;;;;28.20;38.95;101029.47;144994;582;5004;-84
2021/08/25 06:49:00;;;;;;;4.22;2.72;;;;;;;28.37;39.67;101036.84;144994;698;5004;-84
2021/08/25 06:51:28;;;;;;;3.85;3.10;;;;;;;28.40;39.19;101036.72;144994;589;5004;-83
2021/08/25 06:53:55;;;;;;;4.95;3.37;;;;;;;28.32;39.29;101032.63;144994;596;5004;-84
2021/08/25 06:56:21;;;;;;;4.30;2.87;;;;;;;28.31;39.35;101039.75;144994;591;5004;-84
2021/08/25 06:58:48;;;;;;;4.32;2.72;;;;;;;28.30;39.31;101035.38;144994;662;5004;-83
2021/08/25 07:01:14;;;;;;;6.87;3.40;;;;;;;28.17;40.71;101037.66;144994;632;5004;-82
2021/08/25 07:03:41;;;;;;;3.80;2.70;;;;;;;28.08;39.82;101047.78;144994;567;5004;-85
2021/08/25 07:06:08;;;;;;;4.47;2.80;;;;;;;28.32;39.52;101040.63;144994;573;5004;-83
2021/08/25 07:08:34;;;;;;;4.68;2.90;;;;;;;28.33;39.66;101043.25;144994;577;5004;-84
2021/08/25 07:11:01;;;;;;;4.57;3.10;;;;;;;28.49;39.42;101048.84;144994;568;5004;-83
2021/08/25 07:13:27;;;;;;;4.00;3.40;;;;;;;28.36;39.52;101036.91;144994;701;5004;-84
2021/08/25 07:15:54;;;;;;;4.47;2.92;;;;;;;28.43;39.95;101041.09;144994;584;5004;-83
2021/08/25 07:18:20;;;;;;;6.37;3.28;;;;;;;28.44;40.52;101039.28;144994;600;5004;-83
2021/08/25 07:20:48;;;;;;;3.45;2.80;;;;;;;28.43;40.49;101043.75;144994;703;5004;-82
2021/08/25 07:23:14;;;;;;;3.47;2.90;;;;;;;28.37;40.70;101049.34;144994;666;5004;-84
2021/08/25 07:25:42;;;;;;;5.80;3.00;;;;;;;28.41;40.66;101043.81;144994;561;5004;-83
2021/08/25 07:28:09;;;;;;;4.12;3.10;;;;;;;28.44;40.82;101048.13;144994;595;5004;-82
2021/08/25 07:30:35;;;;;;;3.03;2.72;;;;;;;28.42;40.90;101047.34;144994;574;5004;-82
2021/08/25 07:33:02;;;;;;;7.45;2.90;;;;;;;28.55;40.84;101053.06;144994;593;5004;-83
2021/08/25 07:35:29;;;;;;;5.22;2.67;;;;;;;28.59;40.92;101046.72;144993;571;5004;-85
2021/08/25 07:37:59;;;;;;;3.60;2.80;;;;;;;28.56;41.36;101046.78;144994;580;5002;-84
2021/08/25 07:40:25;;;;;;;5.37;3.72;;;;;;;28.63;41.24;101042.97;144994;595;5002;-84
2021/08/25 07:42:52;;;;;;;5.32;3.50;;;;;;;28.71;42.51;101039.97;144993;636;5002;-84
2021/08/25 07:45:18;;;;;;;4.68;3.40;;;;;;;28.83;41.62;101044.81;144994;593;5002;-85
2021/08/25 07:47:46;;;;;;;3.58;3.28;;;;;;;28.95;41.46;101038.97;144994;609;5002;-82
2021/08/25 07:50:13;;;;;;;3.33;2.67;;;;;;;29.02;41.03;101041.41;144994;570;5002;-82
2021/08/25 07:52:39;;;;;;;5.20;2.83;;;;;;;29.06;41.68;101040.31;144994;578;5002;-84
2021/08/25 07:55:07;;;;;;;5.35;2.90;;;;;;;29.13;42.02;101036.47;144994;577;5002;-83
2021/08/25 07:57:33;;;;;;;6.85;2.60;;;;;;;29.22;41.24;101041.41;144994;583;5002;-85
2021/08/25 08:00:03;;;;;;;4.72;2.72;;;;;;;29.39;41.40;101035.34;144994;580;5002;-84
2021/08/25 08:02:29;;;;;;;4.40;2.78;;;;;;;29.42;41.54;101039.69;144994;594;5002;-85
2021/08/25 08:04:56;;;;;;;4.78;3.15;;;;;;;29.15;42.33;101042.59;144994;579;5002;-82
2021/08/25 08:07:22;;;;;;;6.55;3.30;;;;;;;29.17;42.03;101034.50;144994;583;5002;-84
2021/08/25 08:09:49;;;;;;;6.18;3.65;;;;;;;29.19;44.44;101038.00;144994;682;5002;-85
2021/08/25 08:12:15;;;;;;;4.40;3.20;;;;;;;29.21;42.99;101044.19;144994;731;5002;-83
2021/08/25 08:14:42;;;;;;;4.72;2.83;;;;;;;29.31;42.04;101043.69;144994;663;5002;-83
2021/08/25 08:17:08;;;;;;;4.03;3.10;;;;;;;29.40;41.28;101029.06;144994;612;5002;-81
2021/08/25 08:19:35;;;;;;;5.65;3.62;;;;;;;29.25;42.05;101029.72;144994;595;5002;-84
2021/08/25 08:22:03;;;;;;;5.03;3.53;;;;;;;29.41;42.38;101035.28;144994;591;5003;-84
2021/08/25 08:24:30;;;;;;;3.75;3.20;;;;;;;29.63;40.89;101033.37;144994;585;5002;-83
2021/08/25 08:26:58;;;;;;;3.22;2.92;;;;;;;29.65;40.56;101030.63;144994;587;5002;-83
2021/08/25 08:29:25;;;;;;;7.75;3.17;;;;;;;29.72;39.01;101029.44;144994;570;5002;-86
2021/08/25 08:31:51;;;;;;;3.30;3.00;;;;;;;29.87;39.67;101029.69;144994;581;5002;-84
2021/08/25 08:34:18;;;;;;;2.90;2.60;;;;;;;29.83;39.35;101020.94;144994;577;5002;-85
2021/08/25 08:36:45;;;;;;;4.70;2.75;;;;;;;29.88;38.92;101013.56;144994;566;5002;-81
2021/08/25 08:39:11;;;;;;;3.03;2.45;;;;;;;29.95;38.49;101009.66;144994;645;5002;-83
2021/08/25 08:41:40;;;;;;;3.95;2.40;;;;;;;29.93;38.12;101008.00;144994;611;5002;-82
2021/08/25 08:44:10;;;;;;;3.50;2.50;;;;;;;29.88;38.26;101018.06;144994;650;5002;-82
2021/08/25 08:46:41;;;;;;;2.80;2.25;;;;;;;29.96;37.21;101011.41;144994;585;5002;-83
2021/08/25 08:49:09;;;;;;;4.12;2.37;;;;;;;30.00;36.28;101007.66;144994;582;5002;-84
2021/08/25 08:51:40;;;;;;;4.05;2.50;;;;;;;29.86;36.43;101020.81;144994;589;5002;-84
2021/08/25 08:54:06;;;;;;;3.00;2.70;;;;;;;29.82;36.19;101016.53;144994;596;4566;-83
2021/08/25 08:56:34;;;;;;;4.72;3.50;;;;;;;29.93;36.02;101005.31;144994;570;4572;-81
2021/08/25 08:59:01;;;;;;;21.55;4.12;;;;;;;30.07;36.44;101008.22;144994;592;4572;-83
2021/08/25 09:01:31;;;;;;;4.15;3.70;;;;;;;30.11;36.47;101007.13;144993;613;6002;-83
2021/08/25 09:03:58;;;;;;;3.60;2.87;;;;;;;30.23;36.03;100996.78;144992;563;6002;-84
2021/08/25 09:06:45;;;;;;;3.90;3.50;;;;;;;30.39;36.13;101006.69;144992;608;6002;-81
2021/08/25 09:09:12;;;;;;;5.57;3.85;;;;;;;30.54;35.94;101004.19;144992;591;6004;-82
2021/08/25 09:11:53;;;;;;;5.45;4.70;;;;;;;30.59;35.86;100996.78;144992;588;6004;-83
2021/08/25 09:14:19;;;;;;;7.55;6.60;;;;;;;30.56;35.74;100994.31;144992;618;6004;-83
2021/08/25 09:16:46;;;;;;;4.20;3.03;;;;;;;30.67;34.86;100977.66;144992;583;6004;-83
2021/08/25 09:19:16;;;;;;;4.15;3.45;;;;;;;30.73;35.09;100980.94;144992;605;6004;-82
2021/08/25 09:21:53;;;;;;;3.70;3.40;;;;;;;30.77;34.94;100983.41;144992;613;6004;-82
2021/08/25 09:24:37;;;;;;;5.40;4.12;;;;;;;30.79;34.36;100989.59;144992;578;6004;-83
2021/08/25 09:27:08;;;;;;;6.37;3.62;;;;;;;30.92;33.13;100988.00;144992;567;6004;-84
2021/08/25 09:29:40;;;;;;;4.20;3.08;;;;;;;30.93;33.88;100990.59;144992;572;6004;-83
2021/08/25 09:32:18;;;;;;;3.15;2.85;;;;;;;31.13;34.27;100988.72;144992;578;6004;-83
2021/08/25 09:34:44;;;;;;;3.65;2.72;;;;;;;31.21;33.42;100988.34;144992;578;6004;-84
2021/08/25 09:37:18;;;;;;;6.30;3.40;;;;;;;31.16;33.14;100993.94;144992;585;6004;-84
2021/08/25 09:39:49;;;;;;;4.50;3.30;;;;;;;31.30;33.96;101001.25;144992;616;6004;-84
2021/08/25 09:42:18;;;;;;;7.20;4.00;;;;;;;31.37;34.30;101001.78;144992;574;6006;-83
2021/08/25 09:44:47;;;;;;;3.00;2.20;;;;;;;31.46;34.21;100991.44;144992;591;6004;-82
2021/08/25 09:47:15;;;;;;;3.78;2.42;;;;;;;31.45;33.05;100994.19;144992;592;6004;-83
2021/08/25 09:49:41;;;;;;;7.40;2.30;;;;;;;31.53;32.20;100989.34;144992;670;6004;-81
2021/08/25 09:52:07;;;;;;;2.83;1.98;;;;;;;31.54;31.57;100988.38;144992;687;6004;-81
2021/08/25 09:54:34;;;;;;;3.75;2.03;;;;;;;31.47;31.47;100993.19;144992;585;6004;-84
2021/08/25 09:57:00;;;;;;;2.65;2.20;;;;;;;31.43;31.04;100990.75;144991;591;6000;-84
2021/08/25 09:59:27;;;;;;;5.62;2.35;;;;;;;31.29;30.87;100987.00;144992;573;6002;-82
2021/08/25 10:01:54;;;;;;;2.90;1.90;;;;;;;31.38;30.87;100996.34;144992;594;6002;-85
2021/08/25 10:04:20;;;;;;;3.42;2.40;;;;;;;31.28;31.96;100987.06;144992;586;6002;-84
2021/08/25 10:06:50;;;;;;;2.67;2.17;;;;;;;31.42;31.36;100987.22;144992;576;6002;-81
2021/08/25 10:09:18;;;;;;;3.45;2.08;;;;;;;31.35;31.72;100991.16;144992;588;6002;-83
2021/08/25 10:11:56;;;;;;;3.25;2.03;;;;;;;31.32;31.96;100985.09;144992;569;6002;-84
2021/08/25 10:14:23;;;;;;;3.90;2.22;;;;;;;31.40;31.57;100978.38;144992;564;6002;-82
2021/08/25 10:16:53;;;;;;;2.72;2.00;;;;;;;31.46;31.40;100983.38;144992;585;6002;-83
2021/08/25 10:19:39;;;;;;;3.65;2.20;;;;;;;31.47;31.84;100984.28;144992;654;6002;-82
2021/08/25 10:22:26;;;;;;;3.33;2.20;;;;;;;31.44;31.08;100977.25;144991;583;6002;-82
2021/08/25 10:25:04;;;;;;;5.55;2.50;;;;;;;31.40;31.79;100969.44;144992;595;6004;-82
2021/08/25 10:27:32;;;;;;;4.20;2.40;;;;;;;31.42;32.16;100973.78;144992;567;6004;-82
2021/08/25 10:30:15;;;;;;;2.70;2.28;;;;;;;31.41;32.55;100969.37;144992;564;6004;-83
2021/08/25 10:33:14;;;;;;;3.12;2.17;;;;;;;31.48;31.97;100967.22;144992;578;6004;-83
2021/08/25 10:35:42;;;;;;;3.50;2.20;;;;;;;31.42;32.12;100962.22;144992;584;6003;-83
2021/08/25 10:38:40;;;;;;;4.03;2.60;;;;;;;31.45;32.09;100960.22;144992;576;6002;-84
2021/08/25 10:41:20;;;;;;;2.53;2.25;;;;;;;31.52;32.43;100955.37;144992;579;6004;-82
2021/08/25 10:43:47;;;;;;;5.43;3.20;;;;;;;31.42;34.13;100957.69;144992;576;6004;-83
2021/08/25 10:46:15;;;;;;;3.90;2.53;;;;;;;31.63;33.79;100944.97;144992;579;6004;-83
2021/08/25 10:48:44;;;;;;;2.83;2.40;;;;;;;31.65;33.51;100952.91;144992;650;6004;-84
2021/08/25 10:51:29;;;;;;;3.83;3.42;;;;;;;31.56;34.62;100948.06;144992;663;6004;-84
2021/08/25 10:53:56;;;;;;;4.47;2.80;;;;;;;31.64;33.51;100930.59;144992;563;6002;-81
2021/08/25 10:56:42;;;;;;;4.47;3.17;;;;;;;31.64;34.14;100943.13;144992;565;6002;-81
2021/08/25 10:59:13;;;;;;;4.53;3.17;;;;;;;31.50;36.97;100946.56;144992;579;6002;-82
2021/08/25 11:01:45;;;;;;;3.65;3.08;;;;;;;31.56;35.85;100934.66;144992;627;6002;-83
2021/08/25 11:04:22;;;;;;;3.47;3.17;;;;;;;31.49;37.24;100926.03;144992;645;6002;-81
2021/08/25 11:07:06;;;;;;;5.03;3.30;;;;;;;31.45;37.89;100925.34;144992;705;6002;-83
2021/08/25 11:09:34;;;;;;;7.12;3.47;;;;;;;31.49;38.61;100935.91;144992;602;6002;-81
2021/08/25 11:12:13;;;;;;;3.53;2.80;;;;;;;31.38;38.61;100931.97;144991;714;6002;-81
2021/08/25 11:14:55;;;;;;;3.33;3.00;;;;;;;31.39;38.41;100935.56;144992;569;6002;-82
2021/08/25 11:17:30;;;;;;;3.72;2.78;;;;;;;31.35;38.79;100933.97;144992;569;6002;-82
2021/08/25 11:19:59;;;;;;;4.20;2.90;;;;;;;31.36;38.25;100931.22;144992;614;6002;-82
2021/08/25 11:22:31;;;;;;;3.33;2.50;;;;;;;31.24;38.74;100921.13;144992;620;6002;-81
2021/08/25 11:25:23;;;;;;;3.08;2.78;;;;;;;31.17;38.90;100919.75;144992;680;6002;-83
2021/08/25 11:27:51;;;;;;;3.60;2.87;;;;;;;31.18;39.71;100916.09;144992;673;6004;-84
2021/08/25 11:30:24;;;;;;;3.75;2.50;;;;;;;31.20;39.74;100925.81;144991;612;6000;-83
2021/08/25 11:32:59;;;;;;;3.13;2.83;;;;;;;31.09;41.00;100918.34;144992;638;6002;-83
2021/08/25 11:35:29;;;;;;;4.15;2.80;;;;;;;31.02;41.26;100910.69;144992;642;6002;-81
2021/08/25 11:38:06;;;;;;;3.67;2.90;;;;;;;31.03;41.97;100913.28;144992;632;6002;-80
2021/08/25 11:40:34;;;;;;;3.85;2.80;;;;;;;30.98;42.24;100914.50;144992;645;6002;-81
2021/08/25 11:43:08;;;;;;;4.00;2.95;;;;;;;30.99;42.77;100908.16;144992;639;6002;-81